sensor_id;sensor_type;location;lat;lon;timestamp;P1;durP1;ratioP1;P2;durP2;ratioP2
13279;SDS011;6708;49.814;8.652;2023-05-10T00:00:35;0.30;;;0.30;;
13279;SDS011;6708;49.814;8.652;2023-05-10T00:03:04;0.73;;;0.70;;
13279;SDS011;6708;49.814;8.652;2023-05-10T00:05:32;0.30;;;0.30;;
13279;SDS011;6708;49.814;8.652;2023-05-10T00:08:01;0.37;;;0.37;;
13279;SDS011;6708;49.814;8.652;2023-05-10T00:10:29;0.30;;;0.30;;
13279;SDS011;6708;49.814;8.652;2023-05-10T00:12:57;0.23;;;0.23;;
13279;SDS011;6708;49.814;8.652;2023-05-10T00:15:26;0.50;;;0.50;;
13279;SDS011;6708;49.814;8.652;2023-05-10T00:17:58;0.50;;;0.50;;
13279;SDS011;6708;49.814;8.652;2023-05-10T00:20:26;0.40;;;0.40;;
13279;SDS011;6708;49.814;8.652;2023-05-10T00:22:54;2.27;;;0.63;;
13279;SDS011;6708;49.814;8.652;2023-05-10T00:25:23;0.70;;;0.70;;
13279;SDS011;6708;49.814;8.652;2023-05-10T00:27:51;0.50;;;0.50;;
13279;SDS011;6708;49.814;8.652;2023-05-10T00:30:20;0.40;;;0.40;;
13279;SDS011;6708;49.814;8.652;2023-05-10T00:32:48;4.33;;;0.60;;
13279;SDS011;6708;49.814;8.652;2023-05-10T00:35:19;1.03;;;0.60;;
13279;SDS011;6708;49.814;8.652;2023-05-10T00:37:48;0.53;;;0.53;;
13279;SDS011;6708;49.814;8.652;2023-05-10T00:40:16;0.30;;;0.30;;
13279;SDS011;6708;49.814;8.652;2023-05-10T00:42:49;0.40;;;0.40;;
13279;SDS011;6708;49.814;8.652;2023-05-10T00:45:17;0.50;;;0.50;;
13279;SDS011;6708;49.814;8.652;2023-05-10T00:47:45;0.50;;;0.50;;
13279;SDS011;6708;49.814;8.652;2023-05-10T00:50:14;0.30;;;0.30;;
13279;SDS011;6708;49.814;8.652;2023-05-10T00:52:45;0.40;;;0.40;;
13279;SDS011;6708;49.814;8.652;2023-05-10T00:55:13;2.10;;;0.60;;
13279;SDS011;6708;49.814;8.652;2023-05-10T00:57:42;0.50;;;0.50;;
13279;SDS011;6708;49.814;8.652;2023-05-10T01:00:11;0.60;;;0.60;;
13279;SDS011;6708;49.814;8.652;2023-05-10T01:02:43;0.50;;;0.50;;
13279;SDS011;6708;49.814;8.652;2023-05-10T01:05:12;0.50;;;0.50;;
13279;SDS011;6708;49.814;8.652;2023-05-10T01:07:40;0.70;;;0.70;;
13279;SDS011;6708;49.814;8.652;2023-05-10T01:10:12;1.43;;;0.63;;
13279;SDS011;6708;49.814;8.652;2023-05-10T01:12:41;0.50;;;0.50;;
13279;SDS011;6708;49.814;8.652;2023-05-10T01:15:11;0.73;;;0.73;;
13279;SDS011;6708;49.814;8.652;2023-05-10T01:17:40;2.80;;;0.77;;
13279;SDS011;6708;49.814;8.652;2023-05-10T01:20:11;1.80;;;0.70;;
13279;SDS011;6708;49.814;8.652;2023-05-10T01:22:48;0.60;;;0.60;;
13279;SDS011;6708;49.814;8.652;2023-05-10T01:25:35;0.50;;;0.50;;
13279;SDS011;6708;49.814;8.652;2023-05-10T01:28:21;0.70;;;0.70;;
13279;SDS011;6708;49.814;8.652;2023-05-10T01:31:03;0.63;;;0.63;;
13279;SDS011;6708;49.814;8.652;2023-05-10T01:33:41;0.90;;;0.90;;
13279;SDS011;6708;49.814;8.652;2023-05-10T01:36:13;0.63;;;0.63;;
13279;SDS011;6708;49.814;8.652;2023-05-10T01:38:45;1.00;;;1.00;;
13279;SDS011;6708;49.814;8.652;2023-05-10T01:41:17;0.80;;;0.80;;
13279;SDS011;6708;49.814;8.652;2023-05-10T01:43:48;0.90;;;0.90;;
13279;SDS011;6708;49.814;8.652;2023-05-10T01:46:26;1.40;;;1.00;;
13279;SDS011;6708;49.814;8.652;2023-05-10T01:48:59;0.90;;;0.90;;
13279;SDS011;6708;49.814;8.652;2023-05-10T01:51:31;0.80;;;0.80;;
13279;SDS011;6708;49.814;8.652;2023-05-10T01:54:04;1.00;;;1.00;;
13279;SDS011;6708;49.814;8.652;2023-05-10T01:56:34;1.50;;;1.00;;
13279;SDS011;6708;49.814;8.652;2023-05-10T01:59:04;0.63;;;0.63;;
13279;SDS011;6708;49.814;8.652;2023-05-10T02:01:34;0.93;;;0.93;;
13279;SDS011;6708;49.814;8.652;2023-05-10T02:04:07;0.50;;;0.50;;
13279;SDS011;6708;49.814;8.652;2023-05-10T02:06:36;0.80;;;0.80;;
13279;SDS011;6708;49.814;8.652;2023-05-10T02:09:06;0.80;;;0.80;;
13279;SDS011;6708;49.814;8.652;2023-05-10T02:11:35;0.83;;;0.83;;
13279;SDS011;6708;49.814;8.652;2023-05-10T02:14:05;1.23;;;1.13;;
13279;SDS011;6708;49.814;8.652;2023-05-10T02:16:35;1.70;;;1.00;;
13279;SDS011;6708;49.814;8.652;2023-05-10T02:19:07;0.93;;;0.93;;
13279;SDS011;6708;49.814;8.652;2023-05-10T02:21:37;1.13;;;1.03;;
13279;SDS011;6708;49.814;8.652;2023-05-10T02:24:05;0.90;;;0.90;;
13279;SDS011;6708;49.814;8.652;2023-05-10T02:26:35;1.60;;;1.10;;
13279;SDS011;6708;49.814;8.652;2023-05-10T02:29:04;1.10;;;1.10;;
13279;SDS011;6708;49.814;8.652;2023-05-10T02:31:33;0.83;;;0.83;;
13279;SDS011;6708;49.814;8.652;2023-05-10T02:34:03;1.33;;;1.33;;
13279;SDS011;6708;49.814;8.652;2023-05-10T02:36:34;3.10;;;1.30;;
13279;SDS011;6708;49.814;8.652;2023-05-10T02:39:03;1.00;;;1.00;;
13279;SDS011;6708;49.814;8.652;2023-05-10T02:41:35;1.80;;;0.90;;
13279;SDS011;6708;49.814;8.652;2023-05-10T02:44:04;1.20;;;1.20;;
13279;SDS011;6708;49.814;8.652;2023-05-10T02:46:34;1.03;;;1.03;;
13279;SDS011;6708;49.814;8.652;2023-05-10T02:49:03;1.10;;;1.10;;
13279;SDS011;6708;49.814;8.652;2023-05-10T02:51:34;1.20;;;1.20;;
13279;SDS011;6708;49.814;8.652;2023-05-10T02:54:07;1.10;;;1.10;;
13279;SDS011;6708;49.814;8.652;2023-05-10T02:56:40;1.23;;;1.23;;
13279;SDS011;6708;49.814;8.652;2023-05-10T02:59:10;0.93;;;0.93;;
13279;SDS011;6708;49.814;8.652;2023-05-10T03:01:38;1.30;;;1.20;;
13279;SDS011;6708;49.814;8.652;2023-05-10T03:04:07;0.67;;;0.67;;
13279;SDS011;6708;49.814;8.652;2023-05-10T03:06:38;1.17;;;1.00;;
13279;SDS011;6708;49.814;8.652;2023-05-10T03:09:06;1.00;;;1.00;;
13279;SDS011;6708;49.814;8.652;2023-05-10T03:11:39;0.80;;;0.80;;
13279;SDS011;6708;49.814;8.652;2023-05-10T03:14:16;0.87;;;0.87;;
13279;SDS011;6708;49.814;8.652;2023-05-10T03:16:52;1.00;;;1.00;;
13279;SDS011;6708;49.814;8.652;2023-05-10T03:19:26;0.97;;;0.90;;
13279;SDS011;6708;49.814;8.652;2023-05-10T03:22:01;1.30;;;1.10;;
13279;SDS011;6708;49.814;8.652;2023-05-10T03:24:34;1.03;;;1.03;;
13279;SDS011;6708;49.814;8.652;2023-05-10T03:27:03;2.13;;;1.00;;
13279;SDS011;6708;49.814;8.652;2023-05-10T03:29:33;1.07;;;1.07;;
13279;SDS011;6708;49.814;8.652;2023-05-10T03:32:01;1.90;;;0.90;;
13279;SDS011;6708;49.814;8.652;2023-05-10T03:34:31;1.03;;;1.03;;
13279;SDS011;6708;49.814;8.652;2023-05-10T03:37:02;1.00;;;1.00;;
13279;SDS011;6708;49.814;8.652;2023-05-10T03:39:31;0.77;;;0.77;;
13279;SDS011;6708;49.814;8.652;2023-05-10T03:42:00;0.93;;;0.93;;
13279;SDS011;6708;49.814;8.652;2023-05-10T03:44:29;1.00;;;1.00;;
13279;SDS011;6708;49.814;8.652;2023-05-10T03:46:58;1.80;;;1.00;;
13279;SDS011;6708;49.814;8.652;2023-05-10T03:49:26;1.20;;;1.20;;
13279;SDS011;6708;49.814;8.652;2023-05-10T03:51:55;1.53;;;1.30;;
13279;SDS011;6708;49.814;8.652;2023-05-10T03:54:26;2.37;;;1.30;;
13279;SDS011;6708;49.814;8.652;2023-05-10T03:56:54;1.43;;;1.33;;
13279;SDS011;6708;49.814;8.652;2023-05-10T03:59:23;1.27;;;1.27;;
13279;SDS011;6708;49.814;8.652;2023-05-10T04:01:51;1.30;;;1.30;;
13279;SDS011;6708;49.814;8.652;2023-05-10T04:04:20;1.33;;;1.33;;
13279;SDS011;6708;49.814;8.652;2023-05-10T04:06:49;1.20;;;1.20;;
13279;SDS011;6708;49.814;8.652;2023-05-10T04:09:18;1.40;;;1.40;;
13279;SDS011;6708;49.814;8.652;2023-05-10T04:11:49;1.40;;;1.40;;
13279;SDS011;6708;49.814;8.652;2023-05-10T04:14:17;1.60;;;1.37;;
13279;SDS011;6708;49.814;8.652;2023-05-10T04:16:45;1.40;;;1.17;;
13279;SDS011;6708;49.814;8.652;2023-05-10T04:19:14;1.43;;;1.43;;
13279;SDS011;6708;49.814;8.652;2023-05-10T04:21:42;2.60;;;1.37;;
13279;SDS011;6708;49.814;8.652;2023-05-10T04:24:10;1.53;;;1.53;;
13279;SDS011;6708;49.814;8.652;2023-05-10T04:26:40;2.53;;;1.80;;
13279;SDS011;6708;49.814;8.652;2023-05-10T04:29:10;2.83;;;1.60;;
13279;SDS011;6708;49.814;8.652;2023-05-10T04:31:39;1.60;;;1.60;;
13279;SDS011;6708;49.814;8.652;2023-05-10T04:34:07;1.50;;;1.40;;
13279;SDS011;6708;49.814;8.652;2023-05-10T04:36:36;1.50;;;1.50;;
13279;SDS011;6708;49.814;8.652;2023-05-10T04:39:04;1.33;;;1.23;;
13279;SDS011;6708;49.814;8.652;2023-05-10T04:41:34;1.43;;;1.40;;
13279;SDS011;6708;49.814;8.652;2023-05-10T04:44:02;1.37;;;1.37;;
13279;SDS011;6708;49.814;8.652;2023-05-10T04:46:34;1.30;;;1.30;;
13279;SDS011;6708;49.814;8.652;2023-05-10T04:49:02;1.23;;;1.23;;
13279;SDS011;6708;49.814;8.652;2023-05-10T04:51:30;1.40;;;1.30;;
13279;SDS011;6708;49.814;8.652;2023-05-10T04:53:59;1.40;;;1.40;;
13279;SDS011;6708;49.814;8.652;2023-05-10T04:56:27;1.50;;;1.40;;
13279;SDS011;6708;49.814;8.652;2023-05-10T04:58:55;2.07;;;1.53;;
13279;SDS011;6708;49.814;8.652;2023-05-10T05:01:24;1.07;;;1.07;;
13279;SDS011;6708;49.814;8.652;2023-05-10T05:03:55;1.90;;;1.80;;
13279;SDS011;6708;49.814;8.652;2023-05-10T05:06:24;1.60;;;1.60;;
13279;SDS011;6708;49.814;8.652;2023-05-10T05:08:52;1.80;;;1.70;;
13279;SDS011;6708;49.814;8.652;2023-05-10T05:11:21;1.47;;;1.37;;
13279;SDS011;6708;49.814;8.652;2023-05-10T05:13:50;1.47;;;1.47;;
13279;SDS011;6708;49.814;8.652;2023-05-10T05:16:18;1.53;;;1.47;;
13279;SDS011;6708;49.814;8.652;2023-05-10T05:18:47;1.20;;;1.20;;
13279;SDS011;6708;49.814;8.652;2023-05-10T05:21:18;1.77;;;1.67;;
13279;SDS011;6708;49.814;8.652;2023-05-10T05:23:47;1.20;;;1.20;;
13279;SDS011;6708;49.814;8.652;2023-05-10T05:26:15;1.73;;;1.63;;
13279;SDS011;6708;49.814;8.652;2023-05-10T05:28:44;1.40;;;1.30;;
13279;SDS011;6708;49.814;8.652;2023-05-10T05:31:13;1.60;;;1.60;;
13279;SDS011;6708;49.814;8.652;2023-05-10T05:33:42;1.37;;;1.37;;
13279;SDS011;6708;49.814;8.652;2023-05-10T05:36:10;1.57;;;1.40;;
13279;SDS011;6708;49.814;8.652;2023-05-10T05:38:41;2.53;;;1.40;;
13279;SDS011;6708;49.814;8.652;2023-05-10T05:41:10;1.73;;;1.60;;
13279;SDS011;6708;49.814;8.652;2023-05-10T05:43:38;1.53;;;1.43;;
13279;SDS011;6708;49.814;8.652;2023-05-10T05:46:07;1.90;;;1.80;;
13279;SDS011;6708;49.814;8.652;2023-05-10T05:48:35;1.50;;;1.40;;
13279;SDS011;6708;49.814;8.652;2023-05-10T05:51:03;1.40;;;1.40;;
13279;SDS011;6708;49.814;8.652;2023-05-10T05:53:32;1.30;;;1.20;;
13279;SDS011;6708;49.814;8.652;2023-05-10T05:56:03;1.73;;;1.63;;
13279;SDS011;6708;49.814;8.652;2023-05-10T05:58:33;1.23;;;1.23;;
13279;SDS011;6708;49.814;8.652;2023-05-10T06:01:01;1.40;;;1.30;;
13279;SDS011;6708;49.814;8.652;2023-05-10T06:03:29;1.70;;;1.60;;
13279;SDS011;6708;49.814;8.652;2023-05-10T06:05:58;1.30;;;1.20;;
13279;SDS011;6708;49.814;8.652;2023-05-10T06:08:26;1.40;;;1.40;;
13279;SDS011;6708;49.814;8.652;2023-05-10T06:10:55;1.20;;;1.20;;
13279;SDS011;6708;49.814;8.652;2023-05-10T06:13:26;1.30;;;1.30;;
13279;SDS011;6708;49.814;8.652;2023-05-10T06:15:57;1.33;;;1.33;;
13279;SDS011;6708;49.814;8.652;2023-05-10T06:18:25;1.80;;;1.70;;
13279;SDS011;6708;49.814;8.652;2023-05-10T06:20:54;1.70;;;1.60;;
13279;SDS011;6708;49.814;8.652;2023-05-10T06:23:22;1.60;;;1.60;;
13279;SDS011;6708;49.814;8.652;2023-05-10T06:25:51;2.20;;;1.30;;
13279;SDS011;6708;49.814;8.652;2023-05-10T06:28:20;1.47;;;1.47;;
13279;SDS011;6708;49.814;8.652;2023-05-10T06:30:51;2.13;;;1.57;;
13279;SDS011;6708;49.814;8.652;2023-05-10T06:33:19;1.33;;;1.33;;
13279;SDS011;6708;49.814;8.652;2023-05-10T06:35:47;1.77;;;1.67;;
13279;SDS011;6708;49.814;8.652;2023-05-10T06:38:16;1.90;;;1.70;;
13279;SDS011;6708;49.814;8.652;2023-05-10T06:40:44;1.60;;;1.60;;
13279;SDS011;6708;49.814;8.652;2023-05-10T06:43:12;2.13;;;2.00;;
13279;SDS011;6708;49.814;8.652;2023-05-10T06:45:41;1.93;;;1.83;;
13279;SDS011;6708;49.814;8.652;2023-05-10T06:48:12;2.33;;;2.23;;
13279;SDS011;6708;49.814;8.652;2023-05-10T06:50:40;2.40;;;2.30;;
13279;SDS011;6708;49.814;8.652;2023-05-10T06:53:09;2.77;;;2.10;;
13279;SDS011;6708;49.814;8.652;2023-05-10T06:55:38;1.87;;;1.87;;
13279;SDS011;6708;49.814;8.652;2023-05-10T06:58:06;2.30;;;2.20;;
13279;SDS011;6708;49.814;8.652;2023-05-10T07:00:35;2.40;;;2.30;;
13279;SDS011;6708;49.814;8.652;2023-05-10T07:03:05;2.33;;;2.23;;
13279;SDS011;6708;49.814;8.652;2023-05-10T07:05:36;1.90;;;1.80;;
13279;SDS011;6708;49.814;8.652;2023-05-10T07:08:04;2.30;;;2.20;;
13279;SDS011;6708;49.814;8.652;2023-05-10T07:10:33;1.80;;;1.80;;
13279;SDS011;6708;49.814;8.652;2023-05-10T07:13:01;1.70;;;1.60;;
13279;SDS011;6708;49.814;8.652;2023-05-10T07:15:30;2.17;;;2.07;;
13279;SDS011;6708;49.814;8.652;2023-05-10T07:17:58;2.03;;;2.00;;
13279;SDS011;6708;49.814;8.652;2023-05-10T07:20:26;1.87;;;1.80;;
13279;SDS011;6708;49.814;8.652;2023-05-10T07:22:57;2.03;;;1.93;;
13279;SDS011;6708;49.814;8.652;2023-05-10T07:25:26;2.37;;;2.20;;
13279;SDS011;6708;49.814;8.652;2023-05-10T07:27:54;2.20;;;2.10;;
13279;SDS011;6708;49.814;8.652;2023-05-10T07:30:23;1.70;;;1.70;;
13279;SDS011;6708;49.814;8.652;2023-05-10T07:32:51;1.83;;;1.60;;
13279;SDS011;6708;49.814;8.652;2023-05-10T07:35:20;1.67;;;1.57;;
13279;SDS011;6708;49.814;8.652;2023-05-10T07:37:48;1.80;;;1.77;;
13279;SDS011;6708;49.814;8.652;2023-05-10T07:40:19;1.90;;;1.80;;
13279;SDS011;6708;49.814;8.652;2023-05-10T07:42:47;1.80;;;1.80;;
13279;SDS011;6708;49.814;8.652;2023-05-10T07:45:16;16.23;;;2.13;;
13279;SDS011;6708;49.814;8.652;2023-05-10T07:47:44;1.80;;;1.70;;
13279;SDS011;6708;49.814;8.652;2023-05-10T07:50:13;1.53;;;1.43;;
13279;SDS011;6708;49.814;8.652;2023-05-10T07:52:41;1.47;;;1.47;;
13279;SDS011;6708;49.814;8.652;2023-05-10T07:55:09;1.40;;;1.40;;
13279;SDS011;6708;49.814;8.652;2023-05-10T07:57:41;1.57;;;1.33;;
13279;SDS011;6708;49.814;8.652;2023-05-10T08:00:11;1.23;;;1.23;;
13279;SDS011;6708;49.814;8.652;2023-05-10T08:02:41;1.17;;;1.07;;
13279;SDS011;6708;49.814;8.652;2023-05-10T08:05:09;1.57;;;1.00;;
13279;SDS011;6708;49.814;8.652;2023-05-10T08:07:37;1.23;;;1.13;;
13279;SDS011;6708;49.814;8.652;2023-05-10T08:10:07;1.10;;;1.10;;
13279;SDS011;6708;49.814;8.652;2023-05-10T08:12:36;1.17;;;1.17;;
13279;SDS011;6708;49.814;8.652;2023-05-10T08:15:08;1.13;;;1.13;;
13279;SDS011;6708;49.814;8.652;2023-05-10T08:17:37;1.70;;;1.30;;
13279;SDS011;6708;49.814;8.652;2023-05-10T08:20:06;1.27;;;1.27;;
13279;SDS011;6708;49.814;8.652;2023-05-10T08:22:35;1.10;;;1.10;;
13279;SDS011;6708;49.814;8.652;2023-05-10T08:25:04;1.00;;;1.00;;
13279;SDS011;6708;49.814;8.652;2023-05-10T08:27:33;0.77;;;0.77;;
13279;SDS011;6708;49.814;8.652;2023-05-10T08:30:01;1.13;;;1.13;;
13279;SDS011;6708;49.814;8.652;2023-05-10T08:32:32;1.30;;;1.20;;
13279;SDS011;6708;49.814;8.652;2023-05-10T08:35:03;1.30;;;1.30;;
13279;SDS011;6708;49.814;8.652;2023-05-10T08:37:32;1.37;;;1.27;;
13279;SDS011;6708;49.814;8.652;2023-05-10T08:40:00;1.13;;;1.13;;
13279;SDS011;6708;49.814;8.652;2023-05-10T08:42:28;1.30;;;1.20;;
13279;SDS011;6708;49.814;8.652;2023-05-10T08:44:58;1.00;;;1.00;;
13279;SDS011;6708;49.814;8.652;2023-05-10T08:47:27;1.20;;;1.20;;
13279;SDS011;6708;49.814;8.652;2023-05-10T08:49:58;1.00;;;1.00;;
13279;SDS011;6708;49.814;8.652;2023-05-10T08:52:28;1.00;;;0.90;;
13279;SDS011;6708;49.814;8.652;2023-05-10T08:54:58;0.83;;;0.83;;
13279;SDS011;6708;49.814;8.652;2023-05-10T08:57:26;1.10;;;1.10;;
13279;SDS011;6708;49.814;8.652;2023-05-10T08:59:55;0.97;;;0.97;;
13279;SDS011;6708;49.814;8.652;2023-05-10T09:02:23;0.93;;;0.93;;
13279;SDS011;6708;49.814;8.652;2023-05-10T09:04:52;0.60;;;0.60;;
13279;SDS011;6708;49.814;8.652;2023-05-10T09:07:23;0.70;;;0.70;;
13279;SDS011;6708;49.814;8.652;2023-05-10T09:09:51;0.77;;;0.77;;
13279;SDS011;6708;49.814;8.652;2023-05-10T09:12:20;0.80;;;0.80;;
13279;SDS011;6708;49.814;8.652;2023-05-10T09:14:48;2.00;;;0.90;;
13279;SDS011;6708;49.814;8.652;2023-05-10T09:17:18;3.40;;;0.70;;
13279;SDS011;6708;49.814;8.652;2023-05-10T09:19:46;0.70;;;0.70;;
13279;SDS011;6708;49.814;8.652;2023-05-10T09:22:15;0.40;;;0.40;;
13279;SDS011;6708;49.814;8.652;2023-05-10T09:24:47;5.50;;;0.93;;
13279;SDS011;6708;49.814;8.652;2023-05-10T09:27:17;0.30;;;0.30;;
13279;SDS011;6708;49.814;8.652;2023-05-10T09:29:48;0.30;;;0.30;;
13279;SDS011;6708;49.814;8.652;2023-05-10T09:32:19;0.30;;;0.30;;
13279;SDS011;6708;49.814;8.652;2023-05-10T09:34:48;0.20;;;0.20;;
13279;SDS011;6708;49.814;8.652;2023-05-10T09:37:17;0.30;;;0.30;;
13279;SDS011;6708;49.814;8.652;2023-05-10T09:39:48;1.00;;;1.00;;
13279;SDS011;6708;49.814;8.652;2023-05-10T09:42:22;1.97;;;0.60;;
13279;SDS011;6708;49.814;8.652;2023-05-10T09:44:51;0.43;;;0.30;;
13279;SDS011;6708;49.814;8.652;2023-05-10T09:47:19;2.70;;;0.40;;
13279;SDS011;6708;49.814;8.652;2023-05-10T09:49:49;0.37;;;0.27;;
13279;SDS011;6708;49.814;8.652;2023-05-10T09:52:17;0.40;;;0.40;;
13279;SDS011;6708;49.814;8.652;2023-05-10T09:54:52;0.67;;;0.67;;
13279;SDS011;6708;49.814;8.652;2023-05-10T09:57:21;5.80;;;0.70;;
13279;SDS011;6708;49.814;8.652;2023-05-10T09:59:50;1.60;;;0.40;;
13279;SDS011;6708;49.814;8.652;2023-05-10T10:02:19;0.40;;;0.40;;
13279;SDS011;6708;49.814;8.652;2023-05-10T10:04:49;0.40;;;0.40;;
13279;SDS011;6708;49.814;8.652;2023-05-10T10:07:22;0.30;;;0.30;;
13279;SDS011;6708;49.814;8.652;2023-05-10T10:09:55;0.40;;;0.40;;
13279;SDS011;6708;49.814;8.652;2023-05-10T10:12:23;0.50;;;0.50;;
13279;SDS011;6708;49.814;8.652;2023-05-10T10:14:52;0.73;;;0.30;;
13279;SDS011;6708;49.814;8.652;2023-05-10T10:17:21;0.20;;;0.20;;
13279;SDS011;6708;49.814;8.652;2023-05-10T10:19:50;0.60;;;0.50;;
13279;SDS011;6708;49.814;8.652;2023-05-10T10:22:18;0.40;;;0.40;;
13279;SDS011;6708;49.814;8.652;2023-05-10T10:24:47;0.20;;;0.20;;
13279;SDS011;6708;49.814;8.652;2023-05-10T10:27:35;0.20;;;0.20;;
13279;SDS011;6708;49.814;8.652;2023-05-10T10:30:11;0.23;;;0.23;;
13279;SDS011;6708;49.814;8.652;2023-05-10T10:32:54;0.60;;;0.30;;
13279;SDS011;6708;49.814;8.652;2023-05-10T10:35:29;0.53;;;0.53;;
13279;SDS011;6708;49.814;8.652;2023-05-10T10:37:58;1.60;;;0.30;;
13279;SDS011;6708;49.814;8.652;2023-05-10T10:40:27;0.17;;;0.17;;
13279;SDS011;6708;49.814;8.652;2023-05-10T10:43:20;0.40;;;0.40;;
13279;SDS011;6708;49.814;8.652;2023-05-10T10:46:09;0.50;;;0.50;;
13279;SDS011;6708;49.814;8.652;2023-05-10T10:48:38;0.67;;;0.60;;
13279;SDS011;6708;49.814;8.652;2023-05-10T10:51:07;0.50;;;0.50;;
13279;SDS011;6708;49.814;8.652;2023-05-10T10:53:36;0.67;;;0.57;;
13279;SDS011;6708;49.814;8.652;2023-05-10T10:56:06;3.00;;;0.80;;
13279;SDS011;6708;49.814;8.652;2023-05-10T10:58:39;2.47;;;0.80;;
13279;SDS011;6708;49.814;8.652;2023-05-10T11:01:11;0.90;;;0.90;;
13279;SDS011;6708;49.814;8.652;2023-05-10T11:03:41;1.17;;;1.10;;
13279;SDS011;6708;49.814;8.652;2023-05-10T11:06:28;0.80;;;0.80;;
13279;SDS011;6708;49.814;8.652;2023-05-10T11:08:57;0.80;;;0.80;;
13279;SDS011;6708;49.814;8.652;2023-05-10T11:11:26;3.77;;;1.07;;
13279;SDS011;6708;49.814;8.652;2023-05-10T11:13:57;0.73;;;0.47;;
13279;SDS011;6708;49.814;8.652;2023-05-10T11:16:40;1.17;;;0.60;;
13279;SDS011;6708;49.814;8.652;2023-05-10T11:19:09;0.60;;;0.60;;
13279;SDS011;6708;49.814;8.652;2023-05-10T11:21:44;0.30;;;0.30;;
13279;SDS011;6708;49.814;8.652;2023-05-10T11:24:13;0.40;;;0.40;;
13279;SDS011;6708;49.814;8.652;2023-05-10T11:26:43;0.70;;;0.30;;
13279;SDS011;6708;49.814;8.652;2023-05-10T11:29:15;2.23;;;0.27;;
13279;SDS011;6708;49.814;8.652;2023-05-10T11:31:44;0.40;;;0.40;;
13279;SDS011;6708;49.814;8.652;2023-05-10T11:34:22;1.07;;;0.40;;
13279;SDS011;6708;49.814;8.652;2023-05-10T11:36:51;1.13;;;0.40;;
13279;SDS011;6708;49.814;8.652;2023-05-10T11:39:20;1.33;;;0.40;;
13279;SDS011;6708;49.814;8.652;2023-05-10T11:41:49;0.30;;;0.27;;
13279;SDS011;6708;49.814;8.652;2023-05-10T11:44:22;0.20;;;0.20;;
13279;SDS011;6708;49.814;8.652;2023-05-10T11:46:54;0.20;;;0.20;;
13279;SDS011;6708;49.814;8.652;2023-05-10T11:49:22;0.20;;;0.20;;
13279;SDS011;6708;49.814;8.652;2023-05-10T11:51:51;1.70;;;0.20;;
13279;SDS011;6708;49.814;8.652;2023-05-10T11:54:20;1.83;;;0.50;;
13279;SDS011;6708;49.814;8.652;2023-05-10T11:56:48;0.40;;;0.40;;
13279;SDS011;6708;49.814;8.652;2023-05-10T11:59:18;0.27;;;0.27;;
13279;SDS011;6708;49.814;8.652;2023-05-10T12:01:49;2.20;;;0.37;;
13279;SDS011;6708;49.814;8.652;2023-05-10T12:04:17;0.83;;;0.30;;
13279;SDS011;6708;49.814;8.652;2023-05-10T12:06:46;0.93;;;0.40;;
13279;SDS011;6708;49.814;8.652;2023-05-10T12:09:14;1.13;;;0.53;;
13279;SDS011;6708;49.814;8.652;2023-05-10T12:11:43;2.83;;;0.40;;
13279;SDS011;6708;49.814;8.652;2023-05-10T12:14:11;1.50;;;0.43;;
13279;SDS011;6708;49.814;8.652;2023-05-10T12:16:40;0.40;;;0.30;;
13279;SDS011;6708;49.814;8.652;2023-05-10T12:19:13;0.30;;;0.27;;
13279;SDS011;6708;49.814;8.652;2023-05-10T12:21:46;1.00;;;0.60;;
13279;SDS011;6708;49.814;8.652;2023-05-10T12:24:15;0.40;;;0.40;;
13279;SDS011;6708;49.814;8.652;2023-05-10T12:26:45;0.70;;;0.40;;
13279;SDS011;6708;49.814;8.652;2023-05-10T12:29:14;0.60;;;0.60;;
13279;SDS011;6708;49.814;8.652;2023-05-10T12:31:52;1.27;;;0.43;;
13279;SDS011;6708;49.814;8.652;2023-05-10T12:34:30;1.03;;;0.70;;
13279;SDS011;6708;49.814;8.652;2023-05-10T12:37:00;0.77;;;0.70;;
13279;SDS011;6708;49.814;8.652;2023-05-10T12:39:38;0.50;;;0.50;;
13279;SDS011;6708;49.814;8.652;2023-05-10T12:42:07;0.97;;;0.50;;
13279;SDS011;6708;49.814;8.652;2023-05-10T12:44:35;0.60;;;0.60;;
13279;SDS011;6708;49.814;8.652;2023-05-10T12:47:03;0.53;;;0.43;;
13279;SDS011;6708;49.814;8.652;2023-05-10T12:49:34;0.50;;;0.50;;
13279;SDS011;6708;49.814;8.652;2023-05-10T12:52:03;0.50;;;0.50;;
13279;SDS011;6708;49.814;8.652;2023-05-10T12:54:31;0.63;;;0.63;;
13279;SDS011;6708;49.814;8.652;2023-05-10T12:57:01;0.50;;;0.50;;
13279;SDS011;6708;49.814;8.652;2023-05-10T12:59:30;0.57;;;0.57;;
13279;SDS011;6708;49.814;8.652;2023-05-10T13:01:58;0.30;;;0.30;;
13279;SDS011;6708;49.814;8.652;2023-05-10T13:04:26;0.40;;;0.40;;
13279;SDS011;6708;49.814;8.652;2023-05-10T13:06:57;0.60;;;0.50;;
13279;SDS011;6708;49.814;8.652;2023-05-10T13:09:26;0.30;;;0.30;;
13279;SDS011;6708;49.814;8.652;2023-05-10T13:11:55;0.67;;;0.67;;
13279;SDS011;6708;49.814;8.652;2023-05-10T13:14:24;0.80;;;0.80;;
13279;SDS011;6708;49.814;8.652;2023-05-10T13:16:52;0.80;;;0.80;;
13279;SDS011;6708;49.814;8.652;2023-05-10T13:19:21;4.07;;;0.80;;
13279;SDS011;6708;49.814;8.652;2023-05-10T13:21:49;1.30;;;0.97;;
13279;SDS011;6708;49.814;8.652;2023-05-10T13:24:20;0.97;;;0.87;;
13279;SDS011;6708;49.814;8.652;2023-05-10T13:26:48;1.37;;;0.67;;
13279;SDS011;6708;49.814;8.652;2023-05-10T13:29:17;3.63;;;0.43;;
13279;SDS011;6708;49.814;8.652;2023-05-10T13:31:47;0.87;;;0.77;;
13279;SDS011;6708;49.814;8.652;2023-05-10T13:34:16;0.47;;;0.40;;
13279;SDS011;6708;49.814;8.652;2023-05-10T13:36:45;0.77;;;0.60;;
13279;SDS011;6708;49.814;8.652;2023-05-10T13:39:14;0.50;;;0.40;;
13279;SDS011;6708;49.814;8.652;2023-05-10T13:41:45;0.47;;;0.40;;
13279;SDS011;6708;49.814;8.652;2023-05-10T13:44:13;0.60;;;0.60;;
13279;SDS011;6708;49.814;8.652;2023-05-10T13:46:42;0.77;;;0.40;;
13279;SDS011;6708;49.814;8.652;2023-05-10T13:49:11;2.80;;;0.73;;
13279;SDS011;6708;49.814;8.652;2023-05-10T13:51:40;0.93;;;0.43;;
13279;SDS011;6708;49.814;8.652;2023-05-10T13:54:08;0.77;;;0.63;;
13279;SDS011;6708;49.814;8.652;2023-05-10T13:56:37;0.93;;;0.50;;
13279;SDS011;6708;49.814;8.652;2023-05-10T13:59:08;0.50;;;0.50;;
13279;SDS011;6708;49.814;8.652;2023-05-10T14:01:36;2.00;;;0.67;;
13279;SDS011;6708;49.814;8.652;2023-05-10T14:04:05;3.23;;;0.70;;
13279;SDS011;6708;49.814;8.652;2023-05-10T14:06:35;1.20;;;0.63;;
13279;SDS011;6708;49.814;8.652;2023-05-10T14:09:03;3.70;;;0.80;;
13279;SDS011;6708;49.814;8.652;2023-05-10T14:11:32;0.77;;;0.60;;
13279;SDS011;6708;49.814;8.652;2023-05-10T14:14:00;4.20;;;0.80;;
13279;SDS011;6708;49.814;8.652;2023-05-10T14:16:31;0.50;;;0.50;;
13279;SDS011;6708;49.814;8.652;2023-05-10T14:18:59;1.33;;;0.60;;
13279;SDS011;6708;49.814;8.652;2023-05-10T14:21:29;1.33;;;0.40;;
13279;SDS011;6708;49.814;8.652;2023-05-10T14:23:58;0.67;;;0.60;;
13279;SDS011;6708;49.814;8.652;2023-05-10T14:26:26;0.40;;;0.40;;
13279;SDS011;6708;49.814;8.652;2023-05-10T14:28:55;0.80;;;0.63;;
13279;SDS011;6708;49.814;8.652;2023-05-10T14:31:23;0.50;;;0.30;;
13279;SDS011;6708;49.814;8.652;2023-05-10T14:33:55;0.40;;;0.40;;
13279;SDS011;6708;49.814;8.652;2023-05-10T14:36:24;1.60;;;0.60;;
13279;SDS011;6708;49.814;8.652;2023-05-10T14:38:52;0.73;;;0.70;;
13279;SDS011;6708;49.814;8.652;2023-05-10T14:41:21;1.57;;;0.70;;
13279;SDS011;6708;49.814;8.652;2023-05-10T14:43:49;0.40;;;0.40;;
13279;SDS011;6708;49.814;8.652;2023-05-10T14:46:18;2.30;;;0.60;;
13279;SDS011;6708;49.814;8.652;2023-05-10T14:48:46;1.70;;;0.77;;
13279;SDS011;6708;49.814;8.652;2023-05-10T14:51:18;0.53;;;0.53;;
13279;SDS011;6708;49.814;8.652;2023-05-10T14:53:47;1.53;;;0.40;;
13279;SDS011;6708;49.814;8.652;2023-05-10T14:56:15;0.30;;;0.30;;
13279;SDS011;6708;49.814;8.652;2023-05-10T14:58:46;2.63;;;0.63;;
13279;SDS011;6708;49.814;8.652;2023-05-10T15:01:14;0.97;;;0.60;;
13279;SDS011;6708;49.814;8.652;2023-05-10T15:03:43;2.90;;;0.43;;
13279;SDS011;6708;49.814;8.652;2023-05-10T15:06:13;0.40;;;0.40;;
13279;SDS011;6708;49.814;8.652;2023-05-10T15:08:44;0.80;;;0.43;;
13279;SDS011;6708;49.814;8.652;2023-05-10T15:11:13;0.50;;;0.50;;
13279;SDS011;6708;49.814;8.652;2023-05-10T15:13:41;0.60;;;0.60;;
13279;SDS011;6708;49.814;8.652;2023-05-10T15:16:10;1.07;;;0.50;;